sensor_id;sensor_type;location;lat;lon;timestamp;P1;P2;P0
47705;PMS5003;33471;52.104;1.318;2023-05-07T00:01:37;46;42;
47705;PMS5003;33471;52.104;1.318;2023-05-07T00:04:04;53;50;
47705;PMS5003;33471;52.104;1.318;2023-05-07T00:06:32;52;44;
47705;PMS5003;33471;52.104;1.318;2023-05-07T00:08:59;42;40;
47705;PMS5003;33471;52.104;1.318;2023-05-07T00:11:27;52;44;
47705;PMS5003;33471;52.104;1.318;2023-05-07T00:13:54;39;37;
47705;PMS5003;33471;52.104;1.318;2023-05-07T00:16:22;38;35;
47705;PMS5003;33471;52.104;1.318;2023-05-07T00:18:53;47;42;
47705;PMS5003;33471;52.104;1.318;2023-05-07T00:21:21;45;42;
47705;PMS5003;33471;52.104;1.318;2023-05-07T00:23:48;54;41;
47705;PMS5003;33471;52.104;1.318;2023-05-07T00:26:15;36;33;
47705;PMS5003;33471;52.104;1.318;2023-05-07T00:28:43;35;34;
47705;PMS5003;33471;52.104;1.318;2023-05-07T00:31:10;39;39;
47705;PMS5003;33471;52.104;1.318;2023-05-07T00:33:38;40;35;
47705;PMS5003;33471;52.104;1.318;2023-05-07T00:36:05;38;34;
47705;PMS5003;33471;52.104;1.318;2023-05-07T00:38:33;38;36;
47705;PMS5003;33471;52.104;1.318;2023-05-07T00:41:00;42;39;
47705;PMS5003;33471;52.104;1.318;2023-05-07T00:43:27;39;36;
47705;PMS5003;33471;52.104;1.318;2023-05-07T00:45:55;39;35;
47705;PMS5003;33471;52.104;1.318;2023-05-07T00:48:22;44;38;
47705;PMS5003;33471;52.104;1.318;2023-05-07T00:50:49;33;29;
47705;PMS5003;33471;52.104;1.318;2023-05-07T00:53:16;34;33;
47705;PMS5003;33471;52.104;1.318;2023-05-07T00:55:43;40;36;
47705;PMS5003;33471;52.104;1.318;2023-05-07T00:58:11;39;37;
47705;PMS5003;33471;52.104;1.318;2023-05-07T01:00:38;43;37;
47705;PMS5003;33471;52.104;1.318;2023-05-07T01:03:05;32;28;
47705;PMS5003;33471;52.104;1.318;2023-05-07T01:05:32;37;34;
47705;PMS5003;33471;52.104;1.318;2023-05-07T01:08:01;36;34;
47705;PMS5003;33471;52.104;1.318;2023-05-07T01:10:30;32;32;
47705;PMS5003;33471;52.104;1.318;2023-05-07T01:12:57;44;42;
47705;PMS5003;33471;52.104;1.318;2023-05-07T01:15:26;40;37;
47705;PMS5003;33471;52.104;1.318;2023-05-07T01:17:54;41;34;
47705;PMS5003;33471;52.104;1.318;2023-05-07T01:20:22;36;31;
47705;PMS5003;33471;52.104;1.318;2023-05-07T01:22:49;40;36;
47705;PMS5003;33471;52.104;1.318;2023-05-07T01:25:17;37;35;
47705;PMS5003;33471;52.104;1.318;2023-05-07T01:27:45;43;39;
47705;PMS5003;33471;52.104;1.318;2023-05-07T01:30:12;35;29;
47705;PMS5003;33471;52.104;1.318;2023-05-07T01:32:41;40;37;
47705;PMS5003;33471;52.104;1.318;2023-05-07T01:35:15;32;27;
47705;PMS5003;33471;52.104;1.318;2023-05-07T01:37:45;32;29;
47705;PMS5003;33471;52.104;1.318;2023-05-07T01:40:14;42;39;
47705;PMS5003;33471;52.104;1.318;2023-05-07T01:42:41;39;37;
47705;PMS5003;33471;52.104;1.318;2023-05-07T01:45:09;42;37;
47705;PMS5003;33471;52.104;1.318;2023-05-07T01:47:37;35;34;
47705;PMS5003;33471;52.104;1.318;2023-05-07T01:50:06;34;32;
47705;PMS5003;33471;52.104;1.318;2023-05-07T01:52:34;37;36;
47705;PMS5003;33471;52.104;1.318;2023-05-07T01:55:01;33;29;
47705;PMS5003;33471;52.104;1.318;2023-05-07T01:57:29;36;32;
47705;PMS5003;33471;52.104;1.318;2023-05-07T01:59:56;34;28;
47705;PMS5003;33471;52.104;1.318;2023-05-07T02:02:23;33;29;
47705;PMS5003;33471;52.104;1.318;2023-05-07T02:04:50;41;36;
47705;PMS5003;33471;52.104;1.318;2023-05-07T02:07:17;36;33;
47705;PMS5003;33471;52.104;1.318;2023-05-07T02:09:44;38;35;
47705;PMS5003;33471;52.104;1.318;2023-05-07T02:12:12;36;34;
47705;PMS5003;33471;52.104;1.318;2023-05-07T02:14:39;31;26;
47705;PMS5003;33471;52.104;1.318;2023-05-07T02:17:06;40;36;
47705;PMS5003;33471;52.104;1.318;2023-05-07T02:19:33;38;36;
47705;PMS5003;33471;52.104;1.318;2023-05-07T02:22:01;37;35;
47705;PMS5003;33471;52.104;1.318;2023-05-07T02:24:29;36;30;
47705;PMS5003;33471;52.104;1.318;2023-05-07T02:26:56;36;33;
47705;PMS5003;33471;52.104;1.318;2023-05-07T02:29:22;38;30;
47705;PMS5003;33471;52.104;1.318;2023-05-07T02:31:50;34;30;
47705;PMS5003;33471;52.104;1.318;2023-05-07T02:34:17;39;37;
47705;PMS5003;33471;52.104;1.318;2023-05-07T02:36:45;32;32;
47705;PMS5003;33471;52.104;1.318;2023-05-07T02:39:12;31;29;
47705;PMS5003;33471;52.104;1.318;2023-05-07T02:41:40;33;30;
47705;PMS5003;33471;52.104;1.318;2023-05-07T02:44:07;40;34;
47705;PMS5003;33471;52.104;1.318;2023-05-07T02:46:34;34;30;
47705;PMS5003;33471;52.104;1.318;2023-05-07T02:49:02;36;34;
47705;PMS5003;33471;52.104;1.318;2023-05-07T02:51:29;32;31;
47705;PMS5003;33471;52.104;1.318;2023-05-07T02:53:56;36;32;
47705;PMS5003;33471;52.104;1.318;2023-05-07T02:56:25;36;29;
47705;PMS5003;33471;52.104;1.318;2023-05-07T02:58:53;28;27;
47705;PMS5003;33471;52.104;1.318;2023-05-07T03:01:20;36;33;
47705;PMS5003;33471;52.104;1.318;2023-05-07T03:03:47;35;32;
47705;PMS5003;33471;52.104;1.318;2023-05-07T03:06:14;33;29;
47705;PMS5003;33471;52.104;1.318;2023-05-07T03:08:41;34;32;
47705;PMS5003;33471;52.104;1.318;2023-05-07T03:11:09;34;33;
47705;PMS5003;33471;52.104;1.318;2023-05-07T03:13:36;35;32;
47705;PMS5003;33471;52.104;1.318;2023-05-07T03:16:04;31;28;
47705;PMS5003;33471;52.104;1.318;2023-05-07T03:18:32;32;30;
47705;PMS5003;33471;52.104;1.318;2023-05-07T03:20:59;33;29;
47705;PMS5003;33471;52.104;1.318;2023-05-07T03:23:26;35;35;
47705;PMS5003;33471;52.104;1.318;2023-05-07T03:25:54;34;30;
47705;PMS5003;33471;52.104;1.318;2023-05-07T03:28:21;41;35;
47705;PMS5003;33471;52.104;1.318;2023-05-07T03:30:49;42;37;
47705;PMS5003;33471;52.104;1.318;2023-05-07T03:33:16;41;37;
47705;PMS5003;33471;52.104;1.318;2023-05-07T03:35:43;40;34;
47705;PMS5003;33471;52.104;1.318;2023-05-07T03:38:10;33;32;
47705;PMS5003;33471;52.104;1.318;2023-05-07T03:40:38;31;30;
47705;PMS5003;33471;52.104;1.318;2023-05-07T03:43:05;37;35;
47705;PMS5003;33471;52.104;1.318;2023-05-07T03:45:33;37;30;
47705;PMS5003;33471;52.104;1.318;2023-05-07T03:48:00;36;28;
47705;PMS5003;33471;52.104;1.318;2023-05-07T03:50:27;35;32;
47705;PMS5003;33471;52.104;1.318;2023-05-07T03:52:54;37;34;
47705;PMS5003;33471;52.104;1.318;2023-05-07T03:55:22;34;33;
47705;PMS5003;33471;52.104;1.318;2023-05-07T03:57:50;33;30;
47705;PMS5003;33471;52.104;1.318;2023-05-07T04:00:18;32;30;
47705;PMS5003;33471;52.104;1.318;2023-05-07T04:02:45;37;36;
47705;PMS5003;33471;52.104;1.318;2023-05-07T04:05:12;35;34;
47705;PMS5003;33471;52.104;1.318;2023-05-07T04:07:41;32;31;
47705;PMS5003;33471;52.104;1.318;2023-05-07T04:10:08;39;35;
47705;PMS5003;33471;52.104;1.318;2023-05-07T04:12:36;39;34;
47705;PMS5003;33471;52.104;1.318;2023-05-07T04:15:03;42;37;
47705;PMS5003;33471;52.104;1.318;2023-05-07T04:17:33;36;35;
47705;PMS5003;33471;52.104;1.318;2023-05-07T04:20:00;41;36;
47705;PMS5003;33471;52.104;1.318;2023-05-07T04:22:27;37;34;
47705;PMS5003;33471;52.104;1.318;2023-05-07T04:24:54;45;38;
47705;PMS5003;33471;52.104;1.318;2023-05-07T04:27:22;34;34;
47705;PMS5003;33471;52.104;1.318;2023-05-07T04:29:49;42;32;
47705;PMS5003;33471;52.104;1.318;2023-05-07T04:32:17;33;30;
47705;PMS5003;33471;52.104;1.318;2023-05-07T04:34:43;41;38;
47705;PMS5003;33471;52.104;1.318;2023-05-07T04:37:11;44;42;
47705;PMS5003;33471;52.104;1.318;2023-05-07T04:39:37;41;38;
47705;PMS5003;33471;52.104;1.318;2023-05-07T04:42:05;46;41;
47705;PMS5003;33471;52.104;1.318;2023-05-07T04:44:32;31;31;
47705;PMS5003;33471;52.104;1.318;2023-05-07T04:47:00;31;30;
47705;PMS5003;33471;52.104;1.318;2023-05-07T04:49:27;38;35;
47705;PMS5003;33471;52.104;1.318;2023-05-07T04:51:54;44;39;
47705;PMS5003;33471;52.104;1.318;2023-05-07T04:54:22;33;28;
47705;PMS5003;33471;52.104;1.318;2023-05-07T04:56:49;35;34;
47705;PMS5003;33471;52.104;1.318;2023-05-07T04:59:17;31;26;
47705;PMS5003;33471;52.104;1.318;2023-05-07T05:01:44;38;34;
47705;PMS5003;33471;52.104;1.318;2023-05-07T05:04:11;32;31;
47705;PMS5003;33471;52.104;1.318;2023-05-07T05:06:38;37;37;
47705;PMS5003;33471;52.104;1.318;2023-05-07T05:09:06;42;37;
47705;PMS5003;33471;52.104;1.318;2023-05-07T05:11:33;36;33;
47705;PMS5003;33471;52.104;1.318;2023-05-07T05:14:00;31;29;
47705;PMS5003;33471;52.104;1.318;2023-05-07T05:16:27;31;27;
47705;PMS5003;33471;52.104;1.318;2023-05-07T05:18:54;33;31;
47705;PMS5003;33471;52.104;1.318;2023-05-07T05:21:21;34;32;
47705;PMS5003;33471;52.104;1.318;2023-05-07T05:23:48;35;32;
47705;PMS5003;33471;52.104;1.318;2023-05-07T05:26:16;33;31;
47705;PMS5003;33471;52.104;1.318;2023-05-07T05:28:43;35;33;
47705;PMS5003;33471;52.104;1.318;2023-05-07T05:31:10;36;29;
47705;PMS5003;33471;52.104;1.318;2023-05-07T05:33:38;37;32;
47705;PMS5003;33471;52.104;1.318;2023-05-07T05:36:06;36;31;
47705;PMS5003;33471;52.104;1.318;2023-05-07T05:38:36;41;35;
47705;PMS5003;33471;52.104;1.318;2023-05-07T05:41:03;38;35;
47705;PMS5003;33471;52.104;1.318;2023-05-07T05:43:30;29;28;
47705;PMS5003;33471;52.104;1.318;2023-05-07T05:45:57;34;31;
47705;PMS5003;33471;52.104;1.318;2023-05-07T05:48:24;32;32;
47705;PMS5003;33471;52.104;1.318;2023-05-07T05:50:51;43;39;
47705;PMS5003;33471;52.104;1.318;2023-05-07T05:53:18;34;28;
47705;PMS5003;33471;52.104;1.318;2023-05-07T05:55:46;35;29;
47705;PMS5003;33471;52.104;1.318;2023-05-07T05:58:13;37;31;
47705;PMS5003;33471;52.104;1.318;2023-05-07T06:00:40;39;37;
47705;PMS5003;33471;52.104;1.318;2023-05-07T06:03:07;31;26;
47705;PMS5003;33471;52.104;1.318;2023-05-07T06:05:35;38;31;
47705;PMS5003;33471;52.104;1.318;2023-05-07T06:08:03;32;31;
47705;PMS5003;33471;52.104;1.318;2023-05-07T06:10:30;28;27;
47705;PMS5003;33471;52.104;1.318;2023-05-07T06:12:57;28;28;
47705;PMS5003;33471;52.104;1.318;2023-05-07T06:15:25;36;32;
47705;PMS5003;33471;52.104;1.318;2023-05-07T06:17:52;22;21;
47705;PMS5003;33471;52.104;1.318;2023-05-07T06:20:20;27;26;
47705;PMS5003;33471;52.104;1.318;2023-05-07T06:22:47;33;30;
47705;PMS5003;33471;52.104;1.318;2023-05-07T06:25:15;35;32;
47705;PMS5003;33471;52.104;1.318;2023-05-07T06:27:42;32;28;
47705;PMS5003;33471;52.104;1.318;2023-05-07T06:30:10;31;27;
47705;PMS5003;33471;52.104;1.318;2023-05-07T06:32:39;26;26;
47705;PMS5003;33471;52.104;1.318;2023-05-07T06:35:07;24;22;
47705;PMS5003;33471;52.104;1.318;2023-05-07T06:37:34;33;28;
47705;PMS5003;33471;52.104;1.318;2023-05-07T06:40:02;25;24;
47705;PMS5003;33471;52.104;1.318;2023-05-07T06:42:30;21;20;
47705;PMS5003;33471;52.104;1.318;2023-05-07T06:44:58;22;20;
47705;PMS5003;33471;52.104;1.318;2023-05-07T06:47:25;21;20;
47705;PMS5003;33471;52.104;1.318;2023-05-07T06:49:52;24;23;
47705;PMS5003;33471;52.104;1.318;2023-05-07T06:52:19;19;15;
47705;PMS5003;33471;52.104;1.318;2023-05-07T06:54:47;25;23;
47705;PMS5003;33471;52.104;1.318;2023-05-07T06:57:14;24;20;
47705;PMS5003;33471;52.104;1.318;2023-05-07T06:59:42;30;24;
47705;PMS5003;33471;52.104;1.318;2023-05-07T07:02:09;15;13;
47705;PMS5003;33471;52.104;1.318;2023-05-07T07:04:37;16;14;
47705;PMS5003;33471;52.104;1.318;2023-05-07T07:07:03;15;14;
47705;PMS5003;33471;52.104;1.318;2023-05-07T07:09:31;14;12;
47705;PMS5003;33471;52.104;1.318;2023-05-07T07:11:58;19;19;
47705;PMS5003;33471;52.104;1.318;2023-05-07T07:14:26;19;18;
47705;PMS5003;33471;52.104;1.318;2023-05-07T07:16:54;19;19;
47705;PMS5003;33471;52.104;1.318;2023-05-07T07:19:21;18;15;
47705;PMS5003;33471;52.104;1.318;2023-05-07T07:21:48;14;12;
47705;PMS5003;33471;52.104;1.318;2023-05-07T07:24:16;16;14;
47705;PMS5003;33471;52.104;1.318;2023-05-07T07:26:43;21;21;
47705;PMS5003;33471;52.104;1.318;2023-05-07T07:29:10;21;19;
47705;PMS5003;33471;52.104;1.318;2023-05-07T07:31:37;22;22;
47705;PMS5003;33471;52.104;1.318;2023-05-07T07:34:05;19;18;
47705;PMS5003;33471;52.104;1.318;2023-05-07T07:36:32;27;26;
47705;PMS5003;33471;52.104;1.318;2023-05-07T07:38:59;22;22;
47705;PMS5003;33471;52.104;1.318;2023-05-07T07:41:25;23;21;
47705;PMS5003;33471;52.104;1.318;2023-05-07T07:43:52;21;21;
47705;PMS5003;33471;52.104;1.318;2023-05-07T07:46:20;29;26;
47705;PMS5003;33471;52.104;1.318;2023-05-07T07:48:48;20;18;
47705;PMS5003;33471;52.104;1.318;2023-05-07T07:51:15;20;20;
47705;PMS5003;33471;52.104;1.318;2023-05-07T07:53:43;27;27;
47705;PMS5003;33471;52.104;1.318;2023-05-07T07:56:10;24;23;
47705;PMS5003;33471;52.104;1.318;2023-05-07T07:58:38;28;23;
47705;PMS5003;33471;52.104;1.318;2023-05-07T08:01:05;25;20;
47705;PMS5003;33471;52.104;1.318;2023-05-07T08:03:33;16;15;
47705;PMS5003;33471;52.104;1.318;2023-05-07T08:05:59;18;17;
47705;PMS5003;33471;52.104;1.318;2023-05-07T08:08:26;24;23;
47705;PMS5003;33471;52.104;1.318;2023-05-07T08:10:53;23;21;
47705;PMS5003;33471;52.104;1.318;2023-05-07T08:13:20;22;21;
47705;PMS5003;33471;52.104;1.318;2023-05-07T08:15:48;19;19;
47705;PMS5003;33471;52.104;1.318;2023-05-07T08:18:15;20;18;
47705;PMS5003;33471;52.104;1.318;2023-05-07T08:20:42;16;16;
47705;PMS5003;33471;52.104;1.318;2023-05-07T08:23:10;22;18;
47705;PMS5003;33471;52.104;1.318;2023-05-07T08:25:37;20;19;
47705;PMS5003;33471;52.104;1.318;2023-05-07T08:28:04;22;20;
47705;PMS5003;33471;52.104;1.318;2023-05-07T08:30:31;17;16;
47705;PMS5003;33471;52.104;1.318;2023-05-07T08:32:59;22;20;
47705;PMS5003;33471;52.104;1.318;2023-05-07T08:35:26;18;18;
47705;PMS5003;33471;52.104;1.318;2023-05-07T08:37:54;17;16;
47705;PMS5003;33471;52.104;1.318;2023-05-07T08:40:22;19;14;
47705;PMS5003;33471;52.104;1.318;2023-05-07T08:42:53;23;22;
47705;PMS5003;33471;52.104;1.318;2023-05-07T08:45:21;18;18;
47705;PMS5003;33471;52.104;1.318;2023-05-07T08:47:50;14;13;
47705;PMS5003;33471;52.104;1.318;2023-05-07T08:50:23;15;13;
47705;PMS5003;33471;52.104;1.318;2023-05-07T08:52:51;17;17;
47705;PMS5003;33471;52.104;1.318;2023-05-07T08:55:19;15;15;
47705;PMS5003;33471;52.104;1.318;2023-05-07T08:57:46;18;14;
47705;PMS5003;33471;52.104;1.318;2023-05-07T09:00:15;23;22;
47705;PMS5003;33471;52.104;1.318;2023-05-07T09:02:43;14;14;
47705;PMS5003;33471;52.104;1.318;2023-05-07T09:05:10;22;20;
47705;PMS5003;33471;52.104;1.318;2023-05-07T09:07:37;18;17;
47705;PMS5003;33471;52.104;1.318;2023-05-07T09:10:05;17;14;
47705;PMS5003;33471;52.104;1.318;2023-05-07T09:12:33;18;16;
47705;PMS5003;33471;52.104;1.318;2023-05-07T09:15:00;18;13;
47705;PMS5003;33471;52.104;1.318;2023-05-07T09:17:28;20;16;
47705;PMS5003;33471;52.104;1.318;2023-05-07T09:19:55;13;12;
47705;PMS5003;33471;52.104;1.318;2023-05-07T09:22:23;16;15;
47705;PMS5003;33471;52.104;1.318;2023-05-07T09:24:51;17;15;
47705;PMS5003;33471;52.104;1.318;2023-05-07T09:27:18;21;21;
47705;PMS5003;33471;52.104;1.318;2023-05-07T09:29:46;13;12;
47705;PMS5003;33471;52.104;1.318;2023-05-07T09:32:13;13;13;
47705;PMS5003;33471;52.104;1.318;2023-05-07T09:34:41;15;13;
47705;PMS5003;33471;52.104;1.318;2023-05-07T09:37:09;17;15;
47705;PMS5003;33471;52.104;1.318;2023-05-07T09:39:39;12;11;
47705;PMS5003;33471;52.104;1.318;2023-05-07T09:42:07;18;18;
47705;PMS5003;33471;52.104;1.318;2023-05-07T09:44:35;15;15;
47705;PMS5003;33471;52.104;1.318;2023-05-07T09:47:04;16;15;
47705;PMS5003;33471;52.104;1.318;2023-05-07T09:49:33;13;10;
47705;PMS5003;33471;52.104;1.318;2023-05-07T09:52:02;11;11;
47705;PMS5003;33471;52.104;1.318;2023-05-07T09:54:31;15;13;
47705;PMS5003;33471;52.104;1.318;2023-05-07T09:56:59;13;13;
47705;PMS5003;33471;52.104;1.318;2023-05-07T09:59:28;19;16;
47705;PMS5003;33471;52.104;1.318;2023-05-07T10:01:59;12;12;
47705;PMS5003;33471;52.104;1.318;2023-05-07T10:04:27;19;18;
47705;PMS5003;33471;52.104;1.318;2023-05-07T10:06:55;12;12;
47705;PMS5003;33471;52.104;1.318;2023-05-07T10:09:23;10;10;
47705;PMS5003;33471;52.104;1.318;2023-05-07T10:11:52;19;19;
47705;PMS5003;33471;52.104;1.318;2023-05-07T10:14:20;12;11;
47705;PMS5003;33471;52.104;1.318;2023-05-07T10:16:48;14;13;
47705;PMS5003;33471;52.104;1.318;2023-05-07T10:19:16;11;10;
47705;PMS5003;33471;52.104;1.318;2023-05-07T10:21:48;16;15;
47705;PMS5003;33471;52.104;1.318;2023-05-07T10:24:21;10;10;
47705;PMS5003;33471;52.104;1.318;2023-05-07T10:26:53;14;14;
47705;PMS5003;33471;52.104;1.318;2023-05-07T10:29:28;12;10;
47705;PMS5003;33471;52.104;1.318;2023-05-07T10:32:06;13;12;
47705;PMS5003;33471;52.104;1.318;2023-05-07T10:34:47;12;12;
47705;PMS5003;33471;52.104;1.318;2023-05-07T10:37:17;12;12;
47705;PMS5003;33471;52.104;1.318;2023-05-07T10:39:44;12;11;
47705;PMS5003;33471;52.104;1.318;2023-05-07T10:42:14;13;13;
47705;PMS5003;33471;52.104;1.318;2023-05-07T10:44:41;15;14;
47705;PMS5003;33471;52.104;1.318;2023-05-07T10:47:09;10;10;
47705;PMS5003;33471;52.104;1.318;2023-05-07T10:49:40;15;15;
47705;PMS5003;33471;52.104;1.318;2023-05-07T10:52:50;12;11;
47705;PMS5003;33471;52.104;1.318;2023-05-07T10:55:48;17;16;
47705;PMS5003;33471;52.104;1.318;2023-05-07T10:58:24;11;11;
47705;PMS5003;33471;52.104;1.318;2023-05-07T11:00:56;12;12;
47705;PMS5003;33471;52.104;1.318;2023-05-07T11:03:24;14;11;
47705;PMS5003;33471;52.104;1.318;2023-05-07T11:06:08;13;12;
47705;PMS5003;33471;52.104;1.318;2023-05-07T11:08:53;13;12;
47705;PMS5003;33471;52.104;1.318;2023-05-07T11:11:37;13;13;
47705;PMS5003;33471;52.104;1.318;2023-05-07T11:14:11;12;11;
47705;PMS5003;33471;52.104;1.318;2023-05-07T11:16:38;10;10;
47705;PMS5003;33471;52.104;1.318;2023-05-07T11:19:08;8;7;
47705;PMS5003;33471;52.104;1.318;2023-05-07T11:21:35;12;8;
47705;PMS5003;33471;52.104;1.318;2023-05-07T11:24:04;11;10;
47705;PMS5003;33471;52.104;1.318;2023-05-07T11:26:41;12;12;
47705;PMS5003;33471;52.104;1.318;2023-05-07T11:29:11;12;11;
47705;PMS5003;33471;52.104;1.318;2023-05-07T11:31:39;9;9;
47705;PMS5003;33471;52.104;1.318;2023-05-07T11:34:06;12;12;
47705;PMS5003;33471;52.104;1.318;2023-05-07T11:36:34;9;8;
47705;PMS5003;33471;52.104;1.318;2023-05-07T11:39:02;8;8;
47705;PMS5003;33471;52.104;1.318;2023-05-07T11:41:33;9;9;
47705;PMS5003;33471;52.104;1.318;2023-05-07T11:44:01;11;9;
47705;PMS5003;33471;52.104;1.318;2023-05-07T11:46:28;13;10;
47705;PMS5003;33471;52.104;1.318;2023-05-07T11:48:56;9;8;
47705;PMS5003;33471;52.104;1.318;2023-05-07T11:51:24;11;10;
47705;PMS5003;33471;52.104;1.318;2023-05-07T11:53:52;11;10;
47705;PMS5003;33471;52.104;1.318;2023-05-07T11:56:19;9;9;
47705;PMS5003;33471;52.104;1.318;2023-05-07T11:58:47;8;8;
47705;PMS5003;33471;52.104;1.318;2023-05-07T12:01:15;10;8;
47705;PMS5003;33471;52.104;1.318;2023-05-07T12:03:42;7;7;
47705;PMS5003;33471;52.104;1.318;2023-05-07T12:06:11;10;10;
47705;PMS5003;33471;52.104;1.318;2023-05-07T12:08:39;12;12;
47705;PMS5003;33471;52.104;1.318;2023-05-07T12:11:08;11;10;
47705;PMS5003;33471;52.104;1.318;2023-05-07T12:13:37;9;9;
47705;PMS5003;33471;52.104;1.318;2023-05-07T12:16:04;9;8;
47705;PMS5003;33471;52.104;1.318;2023-05-07T12:18:33;13;11;
47705;PMS5003;33471;52.104;1.318;2023-05-07T12:21:02;10;9;
47705;PMS5003;33471;52.104;1.318;2023-05-07T12:23:31;9;9;
47705;PMS5003;33471;52.104;1.318;2023-05-07T12:25:59;9;8;
47705;PMS5003;33471;52.104;1.318;2023-05-07T12:28:27;11;10;
47705;PMS5003;33471;52.104;1.318;2023-05-07T12:30:55;10;9;
47705;PMS5003;33471;52.104;1.318;2023-05-07T12:33:23;18;17;
47705;PMS5003;33471;52.104;1.318;2023-05-07T12:35:53;12;11;
47705;PMS5003;33471;52.104;1.318;2023-05-07T12:38:21;9;8;
47705;PMS5003;33471;52.104;1.318;2023-05-07T12:40:49;11;11;
47705;PMS5003;33471;52.104;1.318;2023-05-07T12:43:20;9;9;
47705;PMS5003;33471;52.104;1.318;2023-05-07T12:45:49;9;7;
47705;PMS5003;33471;52.104;1.318;2023-05-07T12:48:17;7;7;
47705;PMS5003;33471;52.104;1.318;2023-05-07T12:50:48;8;8;
47705;PMS5003;33471;52.104;1.318;2023-05-07T12:53:16;6;6;
47705;PMS5003;33471;52.104;1.318;2023-05-07T12:55:47;10;7;
47705;PMS5003;33471;52.104;1.318;2023-05-07T12:58:16;7;6;
47705;PMS5003;33471;52.104;1.318;2023-05-07T13:00:47;7;7;
47705;PMS5003;33471;52.104;1.318;2023-05-07T13:03:24;6;6;
47705;PMS5003;33471;52.104;1.318;2023-05-07T13:05:54;7;6;
47705;PMS5003;33471;52.104;1.318;2023-05-07T13:08:24;7;6;
47705;PMS5003;33471;52.104;1.318;2023-05-07T13:10:52;8;8;
47705;PMS5003;33471;52.104;1.318;2023-05-07T13:13:20;6;6;
47705;PMS5003;33471;52.104;1.318;2023-05-07T13:15:47;8;6;
47705;PMS5003;33471;52.104;1.318;2023-05-07T13:18:14;7;6;
47705;PMS5003;33471;52.104;1.318;2023-05-07T13:20:42;7;7;
47705;PMS5003;33471;52.104;1.318;2023-05-07T13:23:09;7;7;
47705;PMS5003;33471;52.104;1.318;2023-05-07T13:25:36;6;6;
47705;PMS5003;33471;52.104;1.318;2023-05-07T13:28:03;7;7;
47705;PMS5003;33471;52.104;1.318;2023-05-07T13:30:30;7;7;
47705;PMS5003;33471;52.104;1.318;2023-05-07T13:32:58;8;7;
47705;PMS5003;33471;52.104;1.318;2023-05-07T13:35:25;7;6;
47705;PMS5003;33471;52.104;1.318;2023-05-07T13:37:52;10;9;
47705;PMS5003;33471;52.104;1.318;2023-05-07T13:40:19;7;7;
47705;PMS5003;33471;52.104;1.318;2023-05-07T13:42:46;8;8;
47705;PMS5003;33471;52.104;1.318;2023-05-07T13:45:13;7;7;
47705;PMS5003;33471;52.104;1.318;2023-05-07T13:47:40;7;5;
47705;PMS5003;33471;52.104;1.318;2023-05-07T13:50:08;6;6;
47705;PMS5003;33471;52.104;1.318;2023-05-07T13:52:36;6;6;
47705;PMS5003;33471;52.104;1.318;2023-05-07T13:55:03;7;7;
47705;PMS5003;33471;52.104;1.318;2023-05-07T13:57:32;8;8;
47705;PMS5003;33471;52.104;1.318;2023-05-07T13:59:59;6;6;
47705;PMS5003;33471;52.104;1.318;2023-05-07T14:02:26;11;11;
47705;PMS5003;33471;52.104;1.318;2023-05-07T14:04:53;5;5;
47705;PMS5003;33471;52.104;1.318;2023-05-07T14:07:20;9;9;
47705;PMS5003;33471;52.104;1.318;2023-05-07T14:09:48;8;8;
47705;PMS5003;33471;52.104;1.318;2023-05-07T14:12:15;14;14;
47705;PMS5003;33471;52.104;1.318;2023-05-07T14:14:43;14;13;
47705;PMS5003;33471;52.104;1.318;2023-05-07T14:17:10;14;14;
47705;PMS5003;33471;52.104;1.318;2023-05-07T14:19:37;14;13;
47705;PMS5003;33471;52.104;1.318;2023-05-07T14:22:04;15;13;
47705;PMS5003;33471;52.104;1.318;2023-05-07T14:24:31;22;20;
47705;PMS5003;33471;52.104;1.318;2023-05-07T14:26:58;25;21;
47705;PMS5003;33471;52.104;1.318;2023-05-07T14:29:25;14;14;
47705;PMS5003;33471;52.104;1.318;2023-05-07T14:31:52;20;19;
47705;PMS5003;33471;52.104;1.318;2023-05-07T14:34:20;19;19;
47705;PMS5003;33471;52.104;1.318;2023-05-07T14:36:47;18;17;
47705;PMS5003;33471;52.104;1.318;2023-05-07T14:39:14;18;16;
47705;PMS5003;33471;52.104;1.318;2023-05-07T14:41:41;21;16;
47705;PMS5003;33471;52.104;1.318;2023-05-07T14:44:08;22;21;
47705;PMS5003;33471;52.104;1.318;2023-05-07T14:46:36;13;13;
47705;PMS5003;33471;52.104;1.318;2023-05-07T14:49:03;16;16;
47705;PMS5003;33471;52.104;1.318;2023-05-07T14:51:32;17;17;
47705;PMS5003;33471;52.104;1.318;2023-05-07T14:53:59;16;16;
47705;PMS5003;33471;52.104;1.318;2023-05-07T14:56:27;21;21;
47705;PMS5003;33471;52.104;1.318;2023-05-07T14:58:54;19;19;
47705;PMS5003;33471;52.104;1.318;2023-05-07T15:01:21;18;16;
47705;PMS5003;33471;52.104;1.318;2023-05-07T15:03:53;17;15;
47705;PMS5003;33471;52.104;1.318;2023-05-07T15:06:21;20;14;
47705;PMS5003;33471;52.104;1.318;2023-05-07T15:08:48;21;18;
47705;PMS5003;33471;52.104;1.318;2023-05-07T15:11:15;20;18;
47705;PMS5003;33471;52.104;1.318;2023-05-07T15:13:42;19;19;
47705;PMS5003;33471;52.104;1.318;2023-05-07T15:16:10;21;19;
47705;PMS5003;33471;52.104;1.318;2023-05-07T15:18:37;15;14;
47705;PMS5003;33471;52.104;1.318;2023-05-07T15:21:05;22;18;
47705;PMS5003;33471;52.104;1.318;2023-05-07T15:23:32;21;20;
47705;PMS5003;33471;52.104;1.318;2023-05-07T15:25:59;16;15;
47705;PMS5003;33471;52.104;1.318;2023-05-07T15:28:27;20;18;
47705;PMS5003;33471;52.104;1.318;2023-05-07T15:30:54;21;21;
47705;PMS5003;33471;52.104;1.318;2023-05-07T15:33:22;21;21;
47705;PMS5003;33471;52.104;1.318;2023-05-07T15:35:50;15;15;
47705;PMS5003;33471;52.104;1.318;2023-05-07T15:38:17;15;14;
47705;PMS5003;33471;52.104;1.318;2023-05-07T15:40:45;21;19;
47705;PMS5003;33471;52.104;1.318;2023-05-07T15:43:12;16;16;
47705;PMS5003;33471;52.104;1.318;2023-05-07T15:45:39;12;11;
47705;PMS5003;33471;52.104;1.318;2023-05-07T15:48:08;18;15;
47705;PMS5003;33471;52.104;1.318;2023-05-07T15:50:36;14;13;
47705;PMS5003;33471;52.104;1.318;2023-05-07T15:53:04;18;16;
47705;PMS5003;33471;52.104;1.318;2023-05-07T15:55:32;15;15;
47705;PMS5003;33471;52.104;1.318;2023-05-07T15:57:59;16;15;
47705;PMS5003;33471;52.104;1.318;2023-05-07T16:00:26;25;22;
47705;PMS5003;33471;52.104;1.318;2023-05-07T16:02:53;23;23;
47705;PMS5003;33471;52.104;1.318;2023-05-07T16:05:21;22;20;
47705;PMS5003;33471;52.104;1.318;2023-05-07T16:07:49;15;15;
47705;PMS5003;33471;52.104;1.318;2023-05-07T16:10:16;16;15;
47705;PMS5003;33471;52.104;1.318;2023-05-07T16:12:43;14;12;
47705;PMS5003;33471;52.104;1.318;2023-05-07T16:15:11;19;18;
47705;PMS5003;33471;52.104;1.318;2023-05-07T16:17:39;14;13;
47705;PMS5003;33471;52.104;1.318;2023-05-07T16:20:07;22;19;
47705;PMS5003;33471;52.104;1.318;2023-05-07T16:22:35;20;18;
47705;PMS5003;33471;52.104;1.318;2023-05-07T16:25:03;18;18;
47705;PMS5003;33471;52.104;1.318;2023-05-07T16:27:31;17;17;